Time;durP1;ratioP1;P1;durP2;ratioP2;P2;SDS_P1;SDS_P2;PMS_P1;PMS_P2;Temp;Humidity;BMP_temperature;BMP_pressure;BME280_temperature;BME280_humidity;BME280_pressure;Samples;Min_cycle;Max_cycle;Signal;HPM_P1;HPM_P2
2021/03/17 00:02:23;;;;;;;1.05;0.90;;;1.00;99.90;;;;;;5035845;28;20830;-68
2021/03/17 00:04:49;;;;;;;0.85;0.85;;;1.10;99.90;;;;;;5019544;28;20195;-68
2021/03/17 00:07:14;;;;;;;1.33;1.00;;;1.00;99.90;;;;;;5019909;28;20202;-68
2021/03/17 00:09:40;;;;;;;6.78;1.00;;;0.90;99.90;;;;;;5018553;28;20226;-68
2021/03/17 00:12:07;;;;;;;4.47;1.27;;;1.00;99.90;;;;;;5019160;28;20637;-68
2021/03/17 00:14:32;;;;;;;1.45;0.90;;;1.00;99.90;;;;;;5019606;28;20198;-68
2021/03/17 00:16:58;;;;;;;0.90;0.90;;;1.00;99.90;;;;;;5034907;28;20252;-69
2021/03/17 00:19:24;;;;;;;0.70;0.70;;;1.00;99.90;;;;;;5018531;28;20217;-68
2021/03/17 00:21:50;;;;;;;1.83;0.95;;;1.00;99.90;;;;;;5001271;28;20210;-68
2021/03/17 00:24:15;;;;;;;1.55;0.93;;;1.00;99.90;;;;;;5010991;28;20207;-68
2021/03/17 00:26:41;;;;;;;0.98;0.80;;;1.10;99.90;;;;;;5011065;28;20216;-68
2021/03/17 00:29:07;;;;;;;5.78;1.00;;;1.00;99.90;;;;;;5017361;28;20421;-68
2021/03/17 00:31:32;;;;;;;0.85;0.85;;;1.00;99.90;;;;;;5019043;28;20229;-68
2021/03/17 00:33:58;;;;;;;2.33;0.77;;;1.00;99.90;;;;;;5017385;28;20210;-69
2021/03/17 00:36:24;;;;;;;5.65;0.90;;;0.90;99.90;;;;;;5015475;28;21470;-68
2021/03/17 00:38:49;;;;;;;1.77;0.90;;;0.90;99.90;;;;;;5004922;28;20651;-68
2021/03/17 00:41:15;;;;;;;1.88;1.10;;;0.90;99.90;;;;;;5016072;28;20318;-67
2021/03/17 00:43:41;;;;;;;0.80;0.80;;;0.90;99.90;;;;;;5013204;28;21008;-68
2021/03/17 00:46:07;;;;;;;1.25;0.90;;;0.80;99.90;;;;;;5017828;28;20921;-68
2021/03/17 00:48:32;;;;;;;1.42;0.88;;;0.80;99.90;;;;;;5014961;28;20649;-70
2021/03/17 00:50:58;;;;;;;1.55;0.85;;;0.70;99.90;;;;;;5018634;28;20222;-69
2021/03/17 00:53:24;;;;;;;1.65;0.80;;;0.70;99.90;;;;;;5015912;28;20198;-68
2021/03/17 00:55:50;;;;;;;0.93;0.80;;;0.70;99.90;;;;;;5014499;28;20271;-68
2021/03/17 00:58:15;;;;;;;1.13;0.90;;;0.70;99.90;;;;;;5014877;28;20323;-68
2021/03/17 01:00:42;;;;;;;1.08;0.90;;;0.60;99.90;;;;;;5015602;28;20190;-68
2021/03/17 01:03:07;;;;;;;1.33;1.00;;;0.60;99.90;;;;;;5015059;28;20419;-68
2021/03/17 01:05:34;;;;;;;2.70;0.95;;;0.50;99.90;;;;;;5019673;28;20351;-69
2021/03/17 01:08:00;;;;;;;1.42;0.95;;;0.50;99.90;;;;;;5034008;28;20210;-68
2021/03/17 01:10:46;;;;;;;1.20;1.00;;;0.50;99.90;;;;;;5018043;28;20218;-69
2021/03/17 01:13:12;;;;;;;3.22;1.00;;;0.50;99.90;;;;;;5014037;28;20245;-68
2021/03/17 01:15:38;;;;;;;3.70;1.02;;;0.50;99.90;;;;;;5016025;28;20776;-68
2021/03/17 01:18:05;;;;;;;2.83;1.00;;;0.50;99.90;;;;;;5016552;28;20186;-68
2021/03/17 01:20:31;;;;;;;2.97;0.88;;;0.40;99.90;;;;;;5012905;28;20206;-68
2021/03/17 01:22:58;;;;;;;1.08;0.90;;;0.40;99.90;;;;;;5017728;28;20735;-67
2021/03/17 01:25:31;;;;;;;3.60;0.90;;;0.30;99.90;;;;;;5014085;28;20297;-68
2021/03/17 01:27:58;;;;;;;3.88;0.75;;;0.30;99.90;;;;;;5011936;28;20203;-68
2021/03/17 01:30:29;;;;;;;0.80;0.80;;;0.30;99.90;;;;;;5013304;28;20221;-68
2021/03/17 01:32:54;;;;;;;3.97;1.02;;;0.30;99.90;;;;;;5013844;28;20523;-68
2021/03/17 01:35:20;;;;;;;1.35;0.90;;;0.30;99.90;;;;;;5016460;28;20208;-67
2021/03/17 01:37:46;;;;;;;4.90;1.27;;;0.30;99.90;;;;;;5015547;28;20201;-68
2021/03/17 01:40:13;;;;;;;1.70;0.90;;;0.20;99.90;;;;;;5014900;28;20198;-68
2021/03/17 01:42:40;;;;;;;2.60;1.00;;;0.20;99.90;;;;;;5016512;28;20547;-67
2021/03/17 01:45:11;;;;;;;1.58;0.82;;;0.20;99.90;;;;;;5012054;28;20227;-69
2021/03/17 01:47:38;;;;;;;1.58;1.13;;;0.10;99.90;;;;;;5014950;28;20194;-68
2021/03/17 01:50:07;;;;;;;3.38;0.73;;;0.00;99.90;;;;;;5015018;28;20210;-68
2021/03/17 01:52:33;;;;;;;1.35;0.90;;;0.10;99.90;;;;;;5019571;28;20301;-68
2021/03/17 01:54:59;;;;;;;8.00;1.20;;;0.10;99.90;;;;;;5014639;28;20633;-68
2021/03/17 01:57:25;;;;;;;1.52;1.10;;;0.10;99.90;;;;;;5017569;28;20248;-69
2021/03/17 01:59:51;;;;;;;2.92;1.13;;;0.00;99.90;;;;;;5014376;28;20213;-68
2021/03/17 02:02:17;;;;;;;0.80;0.80;;;0.00;99.90;;;;;;5015597;28;20266;-69
2021/03/17 02:04:43;;;;;;;1.27;0.98;;;0.00;99.90;;;;;;5037393;23;20232;-71
2021/03/17 02:07:09;;;;;;;1.55;0.80;;;0.00;99.90;;;;;;5045472;28;20205;-68
2021/03/17 02:09:35;;;;;;;1.20;1.00;;;0.00;99.90;;;;;;5042688;28;20659;-70
2021/03/17 02:12:29;;;;;;;1.55;1.00;;;-0.10;99.90;;;;;;5046820;28;20193;-69
2021/03/17 02:15:16;;;;;;;1.58;0.90;;;-0.10;99.90;;;;;;5044513;28;20197;-73
2021/03/17 02:17:46;;;;;;;1.45;0.90;;;-0.10;99.90;;;;;;5042714;28;20221;-71
2021/03/17 02:20:32;;;;;;;2.40;0.95;;;-0.20;99.90;;;;;;5043442;28;20667;-70
2021/03/17 02:23:11;;;;;;;2.28;1.10;;;-0.30;99.90;;;;;;5040405;28;20206;-72
2021/03/17 02:26:01;;;;;;;0.85;0.82;;;-0.40;99.90;;;;;;5044848;28;20237;-71
2021/03/17 02:28:55;;;;;;;1.60;0.90;;;-0.40;99.90;;;;;;5041333;28;20201;-71
2021/03/17 02:31:54;;;;;;;1.33;1.00;;;-0.60;99.90;;;;;;5044439;28;20205;-70
2021/03/17 02:34:24;;;;;;;1.73;1.05;;;-0.60;99.90;;;;;;5042974;28;20201;-70
2021/03/17 02:37:01;;;;;;;4.22;1.00;;;-0.60;99.90;;;;;;5045398;28;20193;-70
2021/03/17 02:40:04;;;;;;;1.52;0.80;;;-0.70;99.90;;;;;;5044651;28;20280;-70
2021/03/17 02:42:56;;;;;;;2.15;0.77;;;-0.80;99.90;;;;;;5016701;28;20298;-70
2021/03/17 02:45:30;;;;;;;4.45;1.10;;;-0.90;99.90;;;;;;5025259;28;20636;-71
2021/03/17 02:48:03;;;;;;;0.82;0.82;;;-0.90;99.90;;;;;;5042838;28;20722;-69
2021/03/17 02:50:31;;;;;;;0.88;0.88;;;-1.00;99.90;;;;;;5045777;28;20209;-73
2021/03/17 02:52:59;;;;;;;1.40;0.85;;;-1.00;99.90;;;;;;5045887;28;20223;-70
2021/03/17 02:55:28;;;;;;;1.08;1.00;;;-1.10;99.90;;;;;;5042286;28;20212;-70
2021/03/17 02:57:55;;;;;;;1.63;1.10;;;-1.20;99.90;;;;;;5046560;28;20225;-71
2021/03/17 03:00:22;;;;;;;1.20;1.10;;;-1.30;99.90;;;;;;5043822;28;20189;-71
2021/03/17 03:02:50;;;;;;;1.55;0.90;;;-1.40;99.90;;;;;;5042119;28;20202;-70
2021/03/17 03:05:16;;;;;;;1.02;0.93;;;-1.50;99.90;;;;;;5030042;28;20229;-69
2021/03/17 03:07:47;;;;;;;1.80;1.00;;;-1.60;99.90;;;;;;5025357;28;20596;-70
2021/03/17 03:10:14;;;;;;;3.35;0.80;;;-1.70;99.90;;;;;;5026640;28;20636;-70
2021/03/17 03:12:41;;;;;;;3.50;1.10;;;-1.70;99.90;;;;;;5021853;28;20295;-70
2021/03/17 03:15:10;;;;;;;2.75;0.85;;;-1.80;99.90;;;;;;5022002;28;20185;-70
2021/03/17 03:17:37;;;;;;;1.95;0.90;;;-1.90;99.90;;;;;;5023799;28;20232;-70
2021/03/17 03:20:07;;;;;;;2.28;1.02;;;-1.90;99.90;;;;;;5026089;28;20204;-69
2021/03/17 03:22:33;;;;;;;1.77;0.95;;;-1.90;99.90;;;;;;5026312;28;20212;-70
2021/03/17 03:25:00;;;;;;;8.10;1.15;;;-1.90;99.90;;;;;;5025481;28;20198;-71
2021/03/17 03:27:26;;;;;;;4.10;1.05;;;-1.90;99.90;;;;;;5025432;28;20587;-69
2021/03/17 03:29:53;;;;;;;1.45;1.13;;;-1.90;99.90;;;;;;5025157;28;20201;-70
2021/03/17 03:32:19;;;;;;;1.40;1.00;;;-1.90;99.90;;;;;;5026265;28;20194;-71
2021/03/17 03:34:45;;;;;;;4.50;1.10;;;-2.00;99.90;;;;;;5025974;28;20538;-70
2021/03/17 03:37:11;;;;;;;1.35;0.98;;;-2.00;99.90;;;;;;5022545;28;20202;-70
2021/03/17 03:39:37;;;;;;;2.28;1.00;;;-2.10;99.90;;;;;;5025085;28;20727;-70
2021/03/17 03:42:03;;;;;;;2.45;1.10;;;-2.10;99.90;;;;;;5018481;28;20279;-70
2021/03/17 03:44:28;;;;;;;3.17;1.20;;;-2.10;99.90;;;;;;5025355;28;20202;-71
2021/03/17 03:46:54;;;;;;;1.80;1.00;;;-2.20;99.90;;;;;;5026833;28;20206;-70
2021/03/17 03:49:20;;;;;;;4.57;1.17;;;-2.30;99.90;;;;;;5026514;28;20205;-71
2021/03/17 03:52:08;;;;;;;1.70;1.05;;;-2.30;99.90;;;;;;5023368;28;20208;-70
2021/03/17 03:54:52;;;;;;;1.00;1.00;;;-2.40;99.90;;;;;;5025302;28;20202;-70
2021/03/17 03:57:30;;;;;;;2.35;1.00;;;-2.40;99.90;;;;;;5023796;28;20565;-71
2021/03/17 04:00:03;;;;;;;3.65;1.00;;;-2.50;99.90;;;;;;5023449;28;20715;-70
2021/03/17 04:02:33;;;;;;;1.50;1.25;;;-2.50;99.90;;;;;;5021310;28;20198;-69
2021/03/17 04:05:00;;;;;;;3.85;1.13;;;-2.50;99.90;;;;;;5023124;28;20238;-71
2021/03/17 04:07:27;;;;;;;1.27;1.08;;;-2.50;99.90;;;;;;5022545;28;20194;-70
2021/03/17 04:09:56;;;;;;;2.35;1.10;;;-2.50;99.90;;;;;;5022930;28;20220;-69
2021/03/17 04:12:23;;;;;;;2.00;1.20;;;-2.40;99.90;;;;;;5023202;28;20695;-69
2021/03/17 04:14:57;;;;;;;2.60;1.00;;;-2.40;99.90;;;;;;5022881;28;20620;-71
2021/03/17 04:17:33;;;;;;;1.65;0.90;;;-2.40;99.90;;;;;;5021684;28;20197;-72
2021/03/17 04:20:04;;;;;;;1.02;0.90;;;-2.50;99.90;;;;;;5020972;28;20209;-72
2021/03/17 04:22:31;;;;;;;1.15;1.00;;;-2.60;99.90;;;;;;5023597;28;20225;-70
2021/03/17 04:24:59;;;;;;;2.22;1.00;;;-2.70;99.90;;;;;;5021959;28;20198;-70
2021/03/17 04:27:27;;;;;;;2.22;1.20;;;-2.80;99.90;;;;;;5019744;28;20294;-70
2021/03/17 04:29:54;;;;;;;1.38;1.05;;;-2.80;99.90;;;;;;5023560;28;20210;-69
2021/03/17 04:32:21;;;;;;;1.63;0.90;;;-2.90;99.90;;;;;;5020020;28;20252;-71
2021/03/17 04:34:49;;;;;;;1.17;1.10;;;-2.90;99.90;;;;;;5025258;28;20683;-70
2021/03/17 04:37:16;;;;;;;3.85;1.10;;;-2.90;99.90;;;;;;5022446;28;20210;-70
2021/03/17 04:39:42;;;;;;;3.90;1.10;;;-3.00;99.90;;;;;;5023510;28;20194;-70
2021/03/17 04:42:09;;;;;;;1.48;1.10;;;-3.00;99.90;;;;;;5020480;28;20686;-70
2021/03/17 04:44:37;;;;;;;1.92;1.10;;;-3.10;99.90;;;;;;5023782;28;20251;-71
2021/03/17 04:47:05;;;;;;;4.95;1.30;;;-3.10;99.90;;;;;;5026325;28;20194;-69
2021/03/17 04:49:33;;;;;;;7.72;1.10;;;-3.20;99.90;;;;;;5019008;28;20202;-72
2021/03/17 04:52:00;;;;;;;3.08;1.02;;;-3.30;99.90;;;;;;5023829;28;20801;-72
2021/03/17 04:54:27;;;;;;;1.13;0.95;;;-3.10;99.90;;;;;;5024556;28;20194;-71
2021/03/17 04:56:56;;;;;;;2.95;1.10;;;-3.00;99.90;;;;;;5025604;28;20248;-69
2021/03/17 04:59:23;;;;;;;1.40;1.20;;;-3.00;99.90;;;;;;5022605;28;20224;-70
2021/03/17 05:01:50;;;;;;;2.15;0.93;;;-3.00;99.90;;;;;;5021394;28;20680;-72
2021/03/17 05:04:18;;;;;;;1.67;1.05;;;-3.00;99.90;;;;;;5017493;28;20717;-70
2021/03/17 05:06:50;;;;;;;3.90;1.30;;;-2.90;99.90;;;;;;5025288;28;20716;-71
2021/03/17 05:09:18;;;;;;;2.40;1.20;;;-2.80;99.90;;;;;;5023149;28;20244;-71
2021/03/17 05:11:46;;;;;;;1.85;1.00;;;-2.70;99.90;;;;;;5020432;28;20301;-71
2021/03/17 05:14:13;;;;;;;2.00;1.30;;;-2.80;99.90;;;;;;5021281;28;20759;-70
2021/03/17 05:16:39;;;;;;;1.08;1.00;;;-2.80;99.90;;;;;;5024762;28;20571;-71
2021/03/17 05:19:06;;;;;;;4.07;1.10;;;-2.80;99.90;;;;;;5025321;28;20205;-70
2021/03/17 05:21:34;;;;;;;1.35;1.00;;;-2.80;99.90;;;;;;5029697;28;20198;-69
2021/03/17 05:24:00;;;;;;;1.33;0.90;;;-2.80;99.90;;;;;;5026229;28;20198;-70
2021/03/17 05:26:26;;;;;;;1.48;1.05;;;-2.80;99.90;;;;;;5023275;28;20209;-70
2021/03/17 05:28:53;;;;;;;4.10;1.50;;;-2.80;99.90;;;;;;5022118;28;20202;-70
2021/03/17 05:31:22;;;;;;;3.22;1.10;;;-2.80;99.90;;;;;;5018537;28;20201;-70
2021/03/17 05:33:49;;;;;;;1.55;1.20;;;-2.80;99.90;;;;;;5026584;28;20194;-70
2021/03/17 05:36:14;;;;;;;2.78;1.00;;;-2.70;99.90;;;;;;5023887;28;20564;-71
2021/03/17 05:38:40;;;;;;;1.20;1.08;;;-2.60;99.90;;;;;;5022908;28;20204;-72
2021/03/17 05:41:06;;;;;;;1.15;1.02;;;-2.60;99.90;;;;;;5023177;28;20190;-70
2021/03/17 05:43:34;;;;;;;1.10;1.00;;;-2.50;99.90;;;;;;5023646;28;20194;-70
2021/03/17 05:46:04;;;;;;;1.73;0.90;;;-2.50;99.90;;;;;;5024390;28;20335;-70
2021/03/17 05:48:32;;;;;;;1.10;1.00;;;-2.40;99.90;;;;;;5022005;28;20342;-69
2021/03/17 05:50:59;;;;;;;1.05;0.95;;;-2.40;99.90;;;;;;5024386;28;20210;-72
2021/03/17 05:53:25;;;;;;;1.38;1.13;;;-2.30;99.90;;;;;;5022133;28;20305;-71
2021/03/17 05:55:51;;;;;;;5.85;1.30;;;-2.30;99.90;;;;;;5025766;28;20592;-69
2021/03/17 05:58:19;;;;;;;1.65;1.08;;;-2.20;99.90;;;;;;5024698;28;20285;-70
2021/03/17 06:00:45;;;;;;;2.67;1.10;;;-2.20;99.90;;;;;;5032078;28;20212;-70
2021/03/17 06:03:12;;;;;;;3.13;0.90;;;-2.10;99.90;;;;;;5025570;28;20548;-69
2021/03/17 06:05:38;;;;;;;2.13;1.00;;;-2.00;99.90;;;;;;5022796;28;20249;-71
2021/03/17 06:08:06;;;;;;;2.53;1.08;;;-2.00;99.90;;;;;;5027549;28;20210;-70
2021/03/17 06:10:34;;;;;;;2.20;0.90;;;-1.90;99.90;;;;;;5023624;28;20206;-69
2021/03/17 06:13:02;;;;;;;1.30;1.00;;;-1.90;99.90;;;;;;5023376;28;20245;-70
2021/03/17 06:15:29;;;;;;;2.33;1.05;;;-1.90;99.90;;;;;;5024087;28;20213;-70
2021/03/17 06:18:01;;;;;;;1.10;1.00;;;-1.90;99.90;;;;;;5026219;28;20202;-70
2021/03/17 06:20:28;;;;;;;2.35;1.20;;;-1.80;99.90;;;;;;5023951;28;20198;-71
2021/03/17 06:22:54;;;;;;;2.42;1.10;;;-1.70;99.90;;;;;;5026502;28;20279;-69
2021/03/17 06:25:20;;;;;;;2.15;1.00;;;-1.70;99.90;;;;;;5022776;28;20641;-70
2021/03/17 06:27:46;;;;;;;1.98;1.10;;;-1.60;99.90;;;;;;5026464;28;20297;-69
2021/03/17 06:30:13;;;;;;;4.20;1.50;;;-1.70;99.90;;;;;;5024937;28;20229;-70
2021/03/17 06:32:39;;;;;;;1.15;0.93;;;-1.60;99.90;;;;;;5029155;28;20187;-69
2021/03/17 06:35:22;;;;;;;29.95;13.20;;;-1.60;99.90;;;;;;5022706;28;20238;-70
2021/03/17 06:37:49;;;;;;;4.32;2.58;;;-1.50;99.90;;;;;;5029441;28;20229;-70
2021/03/17 06:40:29;;;;;;;6.43;3.30;;;-1.50;99.90;;;;;;5026104;28;20218;-69
2021/03/17 06:43:06;;;;;;;5.82;3.67;;;-1.50;99.90;;;;;;5020808;28;20656;-69
2021/03/17 06:45:46;;;;;;;5.50;3.10;;;-1.40;99.90;;;;;;5020625;28;20198;-69
2021/03/17 06:48:22;;;;;;;3.83;2.88;;;-1.40;99.90;;;;;;5019479;28;20274;-69
2021/03/17 06:51:00;;;;;;;8.45;3.30;;;-1.40;99.90;;;;;;5028087;28;20288;-69
2021/03/17 06:53:43;;;;;;;24.10;9.43;;;-1.40;99.90;;;;;;5022299;28;20217;-69
2021/03/17 06:56:18;;;;;;;14.98;5.35;;;-1.30;99.90;;;;;;5025459;28;20308;-70
2021/03/17 06:59:08;;;;;;;24.20;11.52;;;-1.20;99.90;;;;;;5021543;28;20221;-70
2021/03/17 07:01:42;;;;;;;1.27;1.20;;;-1.20;99.90;;;;;;5017918;28;20214;-70
2021/03/17 07:04:10;;;;;;;7.20;2.60;;;-1.20;99.90;;;;;;5022485;28;20259;-70
2021/03/17 07:06:38;;;;;;;14.43;8.07;;;-1.10;99.90;;;;;;5023321;28;20198;-69
2021/03/17 07:09:27;;;;;;;22.08;12.80;;;-1.00;99.90;;;;;;5028305;28;20691;-70
2021/03/17 07:12:04;;;;;;;2.35;1.60;;;-0.90;99.90;;;;;;5028603;28;20297;-70
2021/03/17 07:14:37;;;;;;;4.13;1.63;;;-0.80;99.90;;;;;;5025259;28;20300;-69
2021/03/17 07:17:03;;;;;;;2.25;1.50;;;-0.70;99.90;;;;;;5027583;28;20249;-70
2021/03/17 07:19:46;;;;;;;3.15;1.50;;;-0.70;99.90;;;;;;5023586;28;20527;-72
2021/03/17 07:22:14;;;;;;;1.52;1.00;;;-0.60;99.90;;;;;;5032032;28;20215;-69
2021/03/17 07:24:42;;;;;;;8.88;2.75;;;-0.50;99.90;;;;;;5026439;28;20209;-70
2021/03/17 07:27:20;;;;;;;2.45;1.70;;;-0.40;99.90;;;;;;5025966;28;20187;-69
2021/03/17 07:30:06;;;;;;;3.45;2.00;;;-0.30;99.90;;;;;;5026598;28;20189;-69
2021/03/17 07:32:54;;;;;;;6.60;4.18;;;-0.30;99.90;;;;;;5023764;28;20200;-70
2021/03/17 07:35:33;;;;;;;6.00;1.60;;;-0.20;99.90;;;;;;5025130;28;20217;-70
2021/03/17 07:38:05;;;;;;;9.70;2.30;;;-0.10;99.90;;;;;;5022528;28;20205;-71
2021/03/17 07:40:33;;;;;;;1.35;1.25;;;0.00;99.90;;;;;;5024456;28;20217;-70
2021/03/17 07:43:00;;;;;;;1.40;1.30;;;0.10;99.90;;;;;;5026871;28;20205;-70
2021/03/17 07:45:27;;;;;;;2.60;1.33;;;0.30;99.90;;;;;;5024835;28;20255;-70
2021/03/17 07:47:54;;;;;;;1.17;1.00;;;0.40;99.90;;;;;;5023822;28;20739;-70
2021/03/17 07:50:20;;;;;;;0.80;0.80;;;0.60;99.90;;;;;;5020656;28;20565;-70
2021/03/17 07:52:46;;;;;;;3.80;2.72;;;0.70;99.90;;;;;;5029085;28;20186;-70
2021/03/17 07:55:14;;;;;;;3.97;2.72;;;0.90;99.90;;;;;;5028631;28;20237;-69
2021/03/17 07:57:39;;;;;;;9.15;4.05;;;1.10;99.90;;;;;;5027541;28;20205;-71
2021/03/17 08:00:06;;;;;;;2.53;1.52;;;1.20;99.90;;;;;;5024449;28;20543;-70
2021/03/17 08:02:32;;;;;;;6.55;1.20;;;1.40;99.90;;;;;;5020917;28;20664;-69
2021/03/17 08:04:59;;;;;;;3.08;1.30;;;1.50;99.90;;;;;;5027551;28;20229;-73
2021/03/17 08:07:25;;;;;;;2.60;1.30;;;1.60;99.90;;;;;;5024619;28;20206;-71
2021/03/17 08:09:52;;;;;;;4.05;1.58;;;1.80;99.90;;;;;;5021638;28;20224;-69
2021/03/17 08:12:19;;;;;;;2.85;1.80;;;1.80;99.90;;;;;;5017535;28;20381;-71
2021/03/17 08:14:45;;;;;;;2.88;2.00;;;2.00;99.90;;;;;;5024595;28;20202;-70
2021/03/17 08:17:12;;;;;;;3.33;1.42;;;2.00;99.90;;;;;;5024731;28;20198;-70
2021/03/17 08:19:37;;;;;;;4.55;2.22;;;2.20;99.90;;;;;;5021911;28;20243;-71
2021/03/17 08:22:05;;;;;;;2.97;1.00;;;2.30;99.90;;;;;;5026747;28;20281;-72
2021/03/17 08:24:35;;;;;;;2.13;0.90;;;2.30;99.90;;;;;;5020669;28;20281;-70
2021/03/17 08:27:22;;;;;;;1.70;0.98;;;2.40;99.90;;;;;;5023818;28;20195;-70
2021/03/17 08:30:02;;;;;;;1.95;0.95;;;2.50;99.90;;;;;;5021077;28;20206;-70
2021/03/17 08:33:02;;;;;;;1.20;0.80;;;2.60;99.90;;;;;;5030382;28;20301;-70
2021/03/17 08:36:02;;;;;;;0.80;0.80;;;2.70;99.90;;;;;;5021323;28;20201;-70
2021/03/17 08:38:47;;;;;;;1.67;1.13;;;2.80;99.90;;;;;;5025936;28;20205;-71
2021/03/17 08:41:15;;;;;;;1.02;0.90;;;3.00;99.60;;;;;;5023923;28;20198;-70
2021/03/17 08:43:43;;;;;;;1.88;1.10;;;3.10;99.10;;;;;;5023878;28;20208;-70
2021/03/17 08:46:17;;;;;;;6.13;1.08;;;2.90;99.90;;;;;;5026556;28;20202;-71
2021/03/17 08:49:04;;;;;;;2.17;0.90;;;3.10;99.90;;;;;;5028558;28;20501;-70
2021/03/17 08:51:45;;;;;;;1.02;0.85;;;3.50;98.10;;;;;;5019940;28;20611;-70
2021/03/17 08:54:29;;;;;;;1.20;0.93;;;3.70;97.50;;;;;;5024754;28;20251;-71
2021/03/17 08:56:56;;;;;;;4.82;1.45;;;3.80;97.50;;;;;;5024096;28;20282;-70
2021/03/17 08:59:22;;;;;;;1.08;0.98;;;3.80;97.00;;;;;;5023561;28;20202;-70
2021/03/17 09:01:48;;;;;;;0.80;0.80;;;3.90;96.50;;;;;;5021638;28;20206;-69
2021/03/17 09:04:50;;;;;;;3.03;2.05;;;3.80;96.30;;;;;;5021630;28;20744;-71
2021/03/17 09:07:17;;;;;;;8.52;1.27;;;3.80;97.00;;;;;;5019087;28;20206;-70
2021/03/17 09:09:53;;;;;;;5.50;2.88;;;4.00;96.10;;;;;;5024475;28;20577;-70
2021/03/17 09:12:39;;;;;;;8.18;3.63;;;4.00;96.30;;;;;;5023109;28;20252;-72
2021/03/17 09:15:13;;;;;;;8.13;4.93;;;4.20;95.50;;;;;;5014636;28;20210;-70
2021/03/17 09:17:52;;;;;;;5.03;3.30;;;4.20;96.20;;;;;;5022024;28;20197;-71
2021/03/17 09:20:21;;;;;;;1.70;1.00;;;4.50;95.80;;;;;;5024448;28;20198;-71
2021/03/17 09:23:00;;;;;;;7.75;4.72;;;4.60;94.60;;;;;;5025612;28;20286;-70
2021/03/17 09:25:28;;;;;;;2.33;1.73;;;4.60;94.30;;;;;;5026188;28;20205;-70
2021/03/17 09:28:02;;;;;;;5.20;2.42;;;4.80;94.50;;;;;;5021449;28;20199;-70
2021/03/17 09:30:31;;;;;;;5.00;3.05;;;5.10;94.20;;;;;;5025104;28;20206;-70
2021/03/17 09:33:04;;;;;;;7.85;5.47;;;5.30;93.40;;;;;;5029369;28;20217;-70
2021/03/17 09:35:30;;;;;;;2.67;1.52;;;5.50;93.10;;;;;;5023123;28;20687;-71
2021/03/17 09:38:00;;;;;;;14.48;8.15;;;5.70;94.40;;;;;;5021476;28;20514;-71
2021/03/17 09:40:31;;;;;;;2.97;1.40;;;6.00;92.50;;;;;;5027734;28;20295;-70
2021/03/17 09:42:56;;;;;;;3.17;1.50;;;6.40;91.60;;;;;;5022291;28;20210;-71
2021/03/17 09:45:25;;;;;;;1.50;1.10;;;6.50;90.70;;;;;;5020839;28;20213;-70
2021/03/17 09:47:58;;;;;;;1.02;0.90;;;6.50;91.30;;;;;;5024761;28;20209;-71
2021/03/17 09:50:26;;;;;;;1.20;0.80;;;6.50;90.30;;;;;;5028264;28;20218;-70
2021/03/17 09:52:52;;;;;;;2.80;1.10;;;6.50;90.80;;;;;;5024798;28;20528;-70
2021/03/17 09:55:47;;;;;;;3.90;1.13;;;6.50;88.30;;;;;;5023400;28;20191;-69
2021/03/17 09:58:13;;;;;;;1.25;0.95;;;6.50;90.00;;;;;;5009139;28;20202;-70
2021/03/17 10:00:39;;;;;;;2.28;1.15;;;6.50;90.20;;;;;;5016008;28;20225;-70
2021/03/17 10:03:12;;;;;;;3.63;1.00;;;6.50;90.70;;;;;;5021434;28;20197;-73
2021/03/17 10:05:39;;;;;;;0.80;0.80;;;6.80;90.30;;;;;;5017784;28;20319;-70
2021/03/17 10:08:05;;;;;;;1.73;0.90;;;7.10;87.70;;;;;;5021838;28;20221;-70
2021/03/17 10:10:32;;;;;;;4.05;1.00;;;7.10;88.20;;;;;;5015225;28;20199;-71
2021/03/17 10:12:57;;;;;;;1.13;0.82;;;7.40;87.90;;;;;;5025447;28;20201;-70
2021/03/17 10:15:24;;;;;;;1.55;1.00;;;7.70;85.50;;;;;;5022769;28;20205;-71
2021/03/17 10:17:52;;;;;;;1.27;0.90;;;7.80;83.70;;;;;;5022788;28;20605;-70
2021/03/17 10:20:22;;;;;;;2.03;1.00;;;7.50;85.80;;;;;;5020409;28;20198;-71
2021/03/17 10:22:55;;;;;;;2.05;1.10;;;7.50;86.70;;;;;;5024530;28;20197;-72
2021/03/17 10:25:23;;;;;;;0.85;0.82;;;7.40;87.10;;;;;;5018325;28;20615;-71
2021/03/17 10:27:58;;;;;;;3.55;1.00;;;7.80;85.00;;;;;;5025920;28;20681;-72
2021/03/17 10:30:48;;;;;;;1.98;0.90;;;8.10;83.60;;;;;;5022278;28;20245;-70
2021/03/17 10:33:19;;;;;;;2.45;0.90;;;8.10;83.10;;;;;;5021805;28;20632;-70
2021/03/17 10:35:47;;;;;;;1.00;0.90;;;8.30;81.60;;;;;;5025311;28;20198;-70
2021/03/17 10:38:13;;;;;;;1.88;0.70;;;8.40;82.30;;;;;;5021780;28;20720;-70
2021/03/17 10:40:40;;;;;;;2.53;1.00;;;8.70;80.60;;;;;;5020736;28;20201;-72
2021/03/17 10:43:14;;;;;;;1.48;1.02;;;8.40;81.00;;;;;;5025255;28;20610;-70
2021/03/17 10:45:54;;;;;;;1.88;0.95;;;8.50;80.20;;;;;;5021168;28;20577;-71
2021/03/17 10:48:24;;;;;;;3.03;1.00;;;8.50;79.30;;;;;;5022993;28;20194;-70
2021/03/17 10:50:51;;;;;;;0.95;0.85;;;8.50;80.80;;;;;;5020417;28;20262;-72
2021/03/17 10:53:25;;;;;;;1.20;1.10;;;8.80;79.50;;;;;;5023727;28;20668;-71
2021/03/17 10:55:53;;;;;;;0.82;0.80;;;8.90;79.90;;;;;;5024808;28;20194;-74
2021/03/17 10:58:22;;;;;;;0.80;0.80;;;9.30;77.30;;;;;;5042166;28;20249;-70
2021/03/17 11:00:50;;;;;;;1.95;1.00;;;9.30;75.60;;;;;;5025235;28;20312;-71
2021/03/17 11:03:39;;;;;;;2.95;0.80;;;9.10;75.50;;;;;;5021101;28;20789;-69
2021/03/17 11:06:18;;;;;;;0.70;0.70;;;8.70;78.40;;;;;;5022099;28;20279;-70
2021/03/17 11:09:05;;;;;;;1.90;0.85;;;8.80;79.50;;;;;;5022968;28;20660;-73
2021/03/17 11:11:34;;;;;;;1.92;0.90;;;9.00;74.90;;;;;;5023240;28;20209;-70
2021/03/17 11:14:00;;;;;;;3.90;0.80;;;9.00;74.80;;;;;;5023120;28;20751;-70
2021/03/17 11:16:37;;;;;;;1.58;0.85;;;9.00;76.80;;;;;;5022999;28;20210;-70
2021/03/17 11:19:12;;;;;;;1.77;0.95;;;9.10;75.00;;;;;;5043099;28;20317;-69
2021/03/17 11:21:39;;;;;;;4.05;0.90;;;8.90;75.00;;;;;;5022931;28;20197;-69
2021/03/17 11:24:07;;;;;;;1.27;0.80;;;8.60;75.30;;;;;;5021018;28;20190;-69
2021/03/17 11:26:38;;;;;;;1.60;0.90;;;8.40;77.50;;;;;;5020850;28;20727;-69
2021/03/17 11:29:33;;;;;;;0.95;0.80;;;8.60;77.20;;;;;;5020506;28;20198;-70
2021/03/17 11:32:07;;;;;;;1.30;0.85;;;8.90;77.80;;;;;;5019908;28;20241;-74
2021/03/17 11:34:33;;;;;;;0.70;0.70;;;9.10;77.40;;;;;;5019691;28;20618;-69
2021/03/17 11:36:59;;;;;;;1.50;0.88;;;9.40;74.10;;;;;;5022203;28;20627;-73
2021/03/17 11:39:24;;;;;;;0.90;0.80;;;9.40;74.10;;;;;;5024711;28;20659;-71
2021/03/17 11:41:50;;;;;;;5.63;0.90;;;9.30;74.20;;;;;;5019472;28;20207;-71
2021/03/17 11:44:18;;;;;;;1.02;0.90;;;9.10;76.00;;;;;;5018286;28;20661;-70
2021/03/17 11:46:44;;;;;;;3.05;0.80;;;9.20;76.80;;;;;;5021739;28;20202;-71
2021/03/17 11:49:11;;;;;;;0.82;0.75;;;9.50;75.10;;;;;;5020199;28;20206;-70
2021/03/17 11:51:37;;;;;;;0.82;0.82;;;9.80;73.30;;;;;;5025171;28;20204;-69
2021/03/17 11:54:03;;;;;;;0.90;0.90;;;9.50;72.90;;;;;;5024589;28;20656;-71
2021/03/17 11:56:28;;;;;;;0.70;0.70;;;9.30;74.90;;;;;;5024230;28;20688;-72
2021/03/17 11:58:55;;;;;;;0.90;0.90;;;9.50;75.10;;;;;;5027164;28;20281;-71
2021/03/17 12:01:21;;;;;;;0.80;0.80;;;9.70;70.50;;;;;;5026771;28;20226;-69
2021/03/17 12:03:47;;;;;;;2.53;0.88;;;9.60;72.10;;;;;;5023178;28;20310;-70
2021/03/17 12:06:13;;;;;;;1.95;1.00;;;9.50;72.20;;;;;;5025794;28;20792;-69
2021/03/17 12:08:38;;;;;;;0.70;0.70;;;9.50;74.50;;;;;;5027155;28;20271;-69
2021/03/17 12:11:04;;;;;;;0.73;0.73;;;9.80;71.50;;;;;;5026910;28;20378;-69
2021/03/17 12:13:30;;;;;;;0.80;0.80;;;10.00;71.30;;;;;;5025666;28;20695;-71
2021/03/17 12:15:56;;;;;;;0.88;0.80;;;9.80;71.50;;;;;;5026577;28;20194;-70
2021/03/17 12:18:22;;;;;;;0.77;0.70;;;9.80;68.20;;;;;;5027082;28;20684;-69
2021/03/17 12:20:48;;;;;;;0.70;0.70;;;9.60;69.20;;;;;;5025356;28;20198;-70
2021/03/17 12:23:16;;;;;;;1.08;0.90;;;9.10;71.80;;;;;;5027854;28;20198;-68
2021/03/17 12:25:42;;;;;;;4.22;0.70;;;8.80;72.60;;;;;;5019356;28;20562;-69
2021/03/17 12:28:08;;;;;;;1.58;0.88;;;8.30;75.40;;;;;;5025643;28;20203;-71
2021/03/17 12:30:34;;;;;;;0.70;0.70;;;8.00;76.30;;;;;;5028679;28;20735;-69
2021/03/17 12:33:01;;;;;;;1.92;0.93;;;8.20;74.80;;;;;;5023803;28;20206;-70
2021/03/17 12:35:27;;;;;;;0.70;0.70;;;8.40;74.60;;;;;;5021337;28;20273;-69
2021/03/17 12:37:54;;;;;;;0.77;0.77;;;8.50;75.20;;;;;;5022269;28;20202;-69
2021/03/17 12:40:23;;;;;;;2.83;0.63;;;8.80;74.20;;;;;;5025122;28;20293;-70
2021/03/17 12:42:49;;;;;;;2.53;0.80;;;8.90;74.30;;;;;;5027417;28;21127;-71
2021/03/17 12:45:18;;;;;;;0.80;0.80;;;8.90;72.60;;;;;;5021257;28;20245;-70
2021/03/17 12:47:44;;;;;;;1.77;0.90;;;8.90;73.20;;;;;;5018794;28;20305;-70
2021/03/17 12:50:13;;;;;;;0.70;0.70;;;8.60;73.60;;;;;;5023807;28;20602;-70
2021/03/17 12:52:39;;;;;;;0.80;0.80;;;8.40;73.50;;;;;;5028347;28;20551;-70
2021/03/17 12:55:06;;;;;;;2.13;0.90;;;8.30;75.10;;;;;;5028838;28;20324;-70
2021/03/17 12:57:32;;;;;;;0.70;0.70;;;8.50;73.90;;;;;;5026707;28;20190;-69
2021/03/17 12:59:58;;;;;;;2.17;0.90;;;8.70;71.20;;;;;;5022275;28;20205;-69
2021/03/17 13:02:25;;;;;;;0.80;0.80;;;8.90;73.50;;;;;;5019948;28;20559;-71
2021/03/17 13:04:51;;;;;;;9.70;1.05;;;9.00;73.10;;;;;;5021746;28;20307;-70
2021/03/17 13:07:18;;;;;;;0.80;0.80;;;9.00;72.60;;;;;;5025902;28;20759;-69
2021/03/17 13:09:44;;;;;;;0.82;0.63;;;9.00;71.40;;;;;;5028359;28;20219;-70